sensor_id;sensor_type;location;lat;lon;timestamp;temperature;humidity
64685;DHT22;51109;47.414;18.954;2023-03-01T00:02:13;4.40;99.90
64685;DHT22;51109;47.414;18.954;2023-03-01T00:04:38;4.40;99.90
64685;DHT22;51109;47.414;18.954;2023-03-01T00:07:04;4.30;99.90
64685;DHT22;51109;47.414;18.954;2023-03-01T00:09:30;4.30;99.90
64685;DHT22;51109;47.414;18.954;2023-03-01T00:11:56;4.30;99.90
64685;DHT22;51109;47.414;18.954;2023-03-01T00:14:22;4.30;99.90
64685;DHT22;51109;47.414;18.954;2023-03-01T00:16:49;4.40;99.90
64685;DHT22;51109;47.414;18.954;2023-03-01T00:19:17;4.30;99.90
64685;DHT22;51109;47.414;18.954;2023-03-01T00:21:43;4.40;99.90
64685;DHT22;51109;47.414;18.954;2023-03-01T00:24:10;4.30;99.90
64685;DHT22;51109;47.414;18.954;2023-03-01T00:26:36;4.40;99.90
64685;DHT22;51109;47.414;18.954;2023-03-01T00:29:02;4.30;99.90
64685;DHT22;51109;47.414;18.954;2023-03-01T00:31:31;4.40;99.90
64685;DHT22;51109;47.414;18.954;2023-03-01T00:33:59;4.40;99.90
64685;DHT22;51109;47.414;18.954;2023-03-01T00:36:30;4.40;99.90
64685;DHT22;51109;47.414;18.954;2023-03-01T00:38:56;4.40;99.90
64685;DHT22;51109;47.414;18.954;2023-03-01T00:41:23;4.40;99.90
64685;DHT22;51109;47.414;18.954;2023-03-01T00:43:52;4.40;99.90
64685;DHT22;51109;47.414;18.954;2023-03-01T00:46:21;4.40;99.90
64685;DHT22;51109;47.414;18.954;2023-03-01T00:48:47;4.50;99.90
64685;DHT22;51109;47.414;18.954;2023-03-01T00:51:19;4.40;99.90
64685;DHT22;51109;47.414;18.954;2023-03-01T00:53:46;4.40;99.90
64685;DHT22;51109;47.414;18.954;2023-03-01T00:56:14;4.50;99.90
64685;DHT22;51109;47.414;18.954;2023-03-01T00:58:40;4.40;99.90
64685;DHT22;51109;47.414;18.954;2023-03-01T01:01:15;4.40;99.90
64685;DHT22;51109;47.414;18.954;2023-03-01T01:03:59;4.40;99.90
64685;DHT22;51109;47.414;18.954;2023-03-01T01:06:28;4.40;99.90
64685;DHT22;51109;47.414;18.954;2023-03-01T01:08:55;4.40;99.90
64685;DHT22;51109;47.414;18.954;2023-03-01T01:11:23;4.50;99.90
64685;DHT22;51109;47.414;18.954;2023-03-01T01:13:50;4.40;99.90
64685;DHT22;51109;47.414;18.954;2023-03-01T01:16:20;4.40;99.90
64685;DHT22;51109;47.414;18.954;2023-03-01T01:18:46;4.40;99.90
64685;DHT22;51109;47.414;18.954;2023-03-01T01:21:15;4.40;99.90
64685;DHT22;51109;47.414;18.954;2023-03-01T01:23:43;4.40;99.90
64685;DHT22;51109;47.414;18.954;2023-03-01T01:26:18;4.40;99.90
64685;DHT22;51109;47.414;18.954;2023-03-01T01:28:45;4.40;99.90
64685;DHT22;51109;47.414;18.954;2023-03-01T01:31:11;4.40;99.90
64685;DHT22;51109;47.414;18.954;2023-03-01T01:33:37;4.40;99.90
64685;DHT22;51109;47.414;18.954;2023-03-01T01:36:05;4.40;99.90
64685;DHT22;51109;47.414;18.954;2023-03-01T01:38:35;4.40;99.90
64685;DHT22;51109;47.414;18.954;2023-03-01T01:41:01;4.40;99.90
64685;DHT22;51109;47.414;18.954;2023-03-01T01:43:34;4.40;99.90
64685;DHT22;51109;47.414;18.954;2023-03-01T01:46:26;4.40;99.90
64685;DHT22;51109;47.414;18.954;2023-03-01T01:49:17;4.40;99.90
64685;DHT22;51109;47.414;18.954;2023-03-01T01:51:45;4.40;99.90
64685;DHT22;51109;47.414;18.954;2023-03-01T01:55:16;4.40;99.90
64685;DHT22;51109;47.414;18.954;2023-03-01T01:57:31;4.40;99.90
64685;DHT22;51109;47.414;18.954;2023-03-01T02:02:28;4.50;99.90
64685;DHT22;51109;47.414;18.954;2023-03-01T02:05:02;4.50;99.90
64685;DHT22;51109;47.414;18.954;2023-03-01T02:07:38;4.50;99.90
64685;DHT22;51109;47.414;18.954;2023-03-01T02:10:05;4.40;99.90
64685;DHT22;51109;47.414;18.954;2023-03-01T02:12:34;4.40;99.90
64685;DHT22;51109;47.414;18.954;2023-03-01T02:30:48;4.30;99.90
64685;DHT22;51109;47.414;18.954;2023-03-01T02:33:36;4.40;99.90
64685;DHT22;51109;47.414;18.954;2023-03-01T02:36:30;4.30;99.90
64685;DHT22;51109;47.414;18.954;2023-03-01T02:38:59;4.40;99.90
64685;DHT22;51109;47.414;18.954;2023-03-01T02:41:28;4.30;99.90
64685;DHT22;51109;47.414;18.954;2023-03-01T02:43:56;4.30;99.90
64685;DHT22;51109;47.414;18.954;2023-03-01T02:46:26;4.30;99.90
64685;DHT22;51109;47.414;18.954;2023-03-01T02:48:55;4.20;99.90
64685;DHT22;51109;47.414;18.954;2023-03-01T02:51:42;4.20;99.90
64685;DHT22;51109;47.414;18.954;2023-03-01T02:54:24;4.20;99.90
64685;DHT22;51109;47.414;18.954;2023-03-01T02:56:52;4.20;99.90
64685;DHT22;51109;47.414;18.954;2023-03-01T02:59:21;4.20;99.90
64685;DHT22;51109;47.414;18.954;2023-03-01T03:01:48;4.20;99.90
64685;DHT22;51109;47.414;18.954;2023-03-01T03:04:16;4.20;99.90
64685;DHT22;51109;47.414;18.954;2023-03-01T03:06:44;4.20;99.90
64685;DHT22;51109;47.414;18.954;2023-03-01T03:09:11;4.20;99.90
64685;DHT22;51109;47.414;18.954;2023-03-01T03:11:37;4.20;99.90
64685;DHT22;51109;47.414;18.954;2023-03-01T03:14:05;4.20;99.90
64685;DHT22;51109;47.414;18.954;2023-03-01T03:16:31;4.20;99.90
64685;DHT22;51109;47.414;18.954;2023-03-01T03:18:57;4.20;99.90
64685;DHT22;51109;47.414;18.954;2023-03-01T03:21:34;4.20;99.90
64685;DHT22;51109;47.414;18.954;2023-03-01T03:24:00;4.10;99.90
64685;DHT22;51109;47.414;18.954;2023-03-01T03:26:25;4.10;99.90
64685;DHT22;51109;47.414;18.954;2023-03-01T03:28:51;4.20;99.90
64685;DHT22;51109;47.414;18.954;2023-03-01T03:31:17;4.20;99.90
64685;DHT22;51109;47.414;18.954;2023-03-01T03:33:43;4.20;99.90
64685;DHT22;51109;47.414;18.954;2023-03-01T03:36:09;4.20;99.90
64685;DHT22;51109;47.414;18.954;2023-03-01T03:38:44;4.20;99.90
64685;DHT22;51109;47.414;18.954;2023-03-01T03:41:12;4.20;99.90
64685;DHT22;51109;47.414;18.954;2023-03-01T03:43:39;4.10;99.90
64685;DHT22;51109;47.414;18.954;2023-03-01T03:46:06;4.20;99.90
64685;DHT22;51109;47.414;18.954;2023-03-01T03:48:40;4.10;99.90
64685;DHT22;51109;47.414;18.954;2023-03-01T03:51:09;4.10;99.90
64685;DHT22;51109;47.414;18.954;2023-03-01T03:53:35;4.10;99.90
64685;DHT22;51109;47.414;18.954;2023-03-01T03:56:01;4.10;99.90
64685;DHT22;51109;47.414;18.954;2023-03-01T03:58:27;4.10;99.90
64685;DHT22;51109;47.414;18.954;2023-03-01T04:00:55;4.10;99.90
64685;DHT22;51109;47.414;18.954;2023-03-01T04:03:23;4.10;99.90
64685;DHT22;51109;47.414;18.954;2023-03-01T04:05:49;4.10;99.90
64685;DHT22;51109;47.414;18.954;2023-03-01T04:08:22;4.10;99.90
64685;DHT22;51109;47.414;18.954;2023-03-01T04:10:52;4.10;99.90
64685;DHT22;51109;47.414;18.954;2023-03-01T04:13:22;4.20;99.90
64685;DHT22;51109;47.414;18.954;2023-03-01T04:15:52;4.20;99.90
64685;DHT22;51109;47.414;18.954;2023-03-01T04:18:19;4.20;99.90
64685;DHT22;51109;47.414;18.954;2023-03-01T04:20:46;4.20;99.90
64685;DHT22;51109;47.414;18.954;2023-03-01T04:23:15;4.20;99.90
64685;DHT22;51109;47.414;18.954;2023-03-01T04:25:50;4.20;99.90
64685;DHT22;51109;47.414;18.954;2023-03-01T04:28:26;4.20;99.90
64685;DHT22;51109;47.414;18.954;2023-03-01T04:30:53;4.20;99.90
64685;DHT22;51109;47.414;18.954;2023-03-01T04:33:19;4.20;99.90
64685;DHT22;51109;47.414;18.954;2023-03-01T04:35:46;4.10;99.90
64685;DHT22;51109;47.414;18.954;2023-03-01T04:38:16;4.10;99.90
64685;DHT22;51109;47.414;18.954;2023-03-01T04:40:43;4.20;99.90
64685;DHT22;51109;47.414;18.954;2023-03-01T04:43:10;4.20;99.90
64685;DHT22;51109;47.414;18.954;2023-03-01T04:45:36;4.20;99.90
64685;DHT22;51109;47.414;18.954;2023-03-01T04:48:03;4.20;99.90
64685;DHT22;51109;47.414;18.954;2023-03-01T04:50:30;4.20;99.90
64685;DHT22;51109;47.414;18.954;2023-03-01T04:52:56;4.20;99.90
64685;DHT22;51109;47.414;18.954;2023-03-01T04:55:27;4.20;99.90
64685;DHT22;51109;47.414;18.954;2023-03-01T04:57:54;4.20;99.90
64685;DHT22;51109;47.414;18.954;2023-03-01T05:00:22;4.20;99.90
64685;DHT22;51109;47.414;18.954;2023-03-01T05:02:53;4.20;99.90
64685;DHT22;51109;47.414;18.954;2023-03-01T05:05:34;4.20;99.90
64685;DHT22;51109;47.414;18.954;2023-03-01T05:08:05;4.20;99.90
64685;DHT22;51109;47.414;18.954;2023-03-01T05:10:35;4.20;99.90
64685;DHT22;51109;47.414;18.954;2023-03-01T05:13:02;4.20;99.90
64685;DHT22;51109;47.414;18.954;2023-03-01T05:15:29;4.20;99.90
64685;DHT22;51109;47.414;18.954;2023-03-01T05:17:57;4.20;99.90
64685;DHT22;51109;47.414;18.954;2023-03-01T05:20:29;4.20;99.90
64685;DHT22;51109;47.414;18.954;2023-03-01T05:22:57;4.20;99.90
64685;DHT22;51109;47.414;18.954;2023-03-01T05:25:24;4.10;99.90
64685;DHT22;51109;47.414;18.954;2023-03-01T05:27:51;4.10;99.90
64685;DHT22;51109;47.414;18.954;2023-03-01T05:30:17;4.10;99.90
64685;DHT22;51109;47.414;18.954;2023-03-01T05:32:49;4.10;99.90
64685;DHT22;51109;47.414;18.954;2023-03-01T05:35:21;4.20;99.90
64685;DHT22;51109;47.414;18.954;2023-03-01T05:37:48;4.20;99.90
64685;DHT22;51109;47.414;18.954;2023-03-01T05:40:18;4.20;99.90
64685;DHT22;51109;47.414;18.954;2023-03-01T05:42:52;4.20;99.90
64685;DHT22;51109;47.414;18.954;2023-03-01T05:45:19;4.20;99.90
64685;DHT22;51109;47.414;18.954;2023-03-01T05:47:46;4.30;99.90
64685;DHT22;51109;47.414;18.954;2023-03-01T05:50:21;4.30;99.90
64685;DHT22;51109;47.414;18.954;2023-03-01T05:52:52;4.30;99.90
64685;DHT22;51109;47.414;18.954;2023-03-01T05:55:21;4.30;99.90
64685;DHT22;51109;47.414;18.954;2023-03-01T05:57:47;4.30;99.90
64685;DHT22;51109;47.414;18.954;2023-03-01T06:00:17;4.40;99.90
64685;DHT22;51109;47.414;18.954;2023-03-01T06:02:44;4.40;99.90
64685;DHT22;51109;47.414;18.954;2023-03-01T06:05:11;4.40;99.90
64685;DHT22;51109;47.414;18.954;2023-03-01T06:07:37;4.30;99.90
64685;DHT22;51109;47.414;18.954;2023-03-01T06:10:06;4.40;99.90
64685;DHT22;51109;47.414;18.954;2023-03-01T06:12:37;4.40;99.90
64685;DHT22;51109;47.414;18.954;2023-03-01T06:15:04;4.40;99.90
64685;DHT22;51109;47.414;18.954;2023-03-01T06:17:32;4.50;99.90
64685;DHT22;51109;47.414;18.954;2023-03-01T06:19:58;4.50;99.90
64685;DHT22;51109;47.414;18.954;2023-03-01T06:22:24;4.50;99.90
64685;DHT22;51109;47.414;18.954;2023-03-01T06:24:50;4.50;99.90
64685;DHT22;51109;47.414;18.954;2023-03-01T06:27:16;4.50;99.90
64685;DHT22;51109;47.414;18.954;2023-03-01T06:29:42;4.60;99.90
64685;DHT22;51109;47.414;18.954;2023-03-01T06:32:08;4.60;99.90
64685;DHT22;51109;47.414;18.954;2023-03-01T06:34:34;4.70;99.90
64685;DHT22;51109;47.414;18.954;2023-03-01T06:37:00;4.70;99.90
64685;DHT22;51109;47.414;18.954;2023-03-01T06:39:28;4.80;99.90
64685;DHT22;51109;47.414;18.954;2023-03-01T06:41:54;4.80;99.90
64685;DHT22;51109;47.414;18.954;2023-03-01T06:44:20;4.80;99.90
64685;DHT22;51109;47.414;18.954;2023-03-01T06:46:46;4.70;99.90
64685;DHT22;51109;47.414;18.954;2023-03-01T06:49:12;4.70;99.90
64685;DHT22;51109;47.414;18.954;2023-03-01T06:51:38;4.80;99.90
64685;DHT22;51109;47.414;18.954;2023-03-01T06:54:04;4.80;99.90
64685;DHT22;51109;47.414;18.954;2023-03-01T06:56:31;4.80;99.90
64685;DHT22;51109;47.414;18.954;2023-03-01T06:58:57;4.80;99.90
64685;DHT22;51109;47.414;18.954;2023-03-01T07:01:23;4.90;99.90
64685;DHT22;51109;47.414;18.954;2023-03-01T07:03:49;4.90;99.90
64685;DHT22;51109;47.414;18.954;2023-03-01T07:06:15;5.00;99.90
64685;DHT22;51109;47.414;18.954;2023-03-01T07:08:41;5.00;99.90
64685;DHT22;51109;47.414;18.954;2023-03-01T07:11:07;5.00;99.90
64685;DHT22;51109;47.414;18.954;2023-03-01T07:13:34;5.10;99.90
64685;DHT22;51109;47.414;18.954;2023-03-01T07:15:59;5.10;99.90
64685;DHT22;51109;47.414;18.954;2023-03-01T07:18:25;5.10;99.90
64685;DHT22;51109;47.414;18.954;2023-03-01T07:20:51;5.20;99.90
64685;DHT22;51109;47.414;18.954;2023-03-01T07:23:18;5.20;99.90
64685;DHT22;51109;47.414;18.954;2023-03-01T07:25:44;5.20;99.90
64685;DHT22;51109;47.414;18.954;2023-03-01T07:28:16;5.30;99.90
64685;DHT22;51109;47.414;18.954;2023-03-01T07:30:42;5.20;99.90
64685;DHT22;51109;47.414;18.954;2023-03-01T07:33:08;5.20;99.90
64685;DHT22;51109;47.414;18.954;2023-03-01T07:35:34;5.20;99.90
64685;DHT22;51109;47.414;18.954;2023-03-01T07:38:00;5.20;99.90
64685;DHT22;51109;47.414;18.954;2023-03-01T07:40:27;5.20;99.90
64685;DHT22;51109;47.414;18.954;2023-03-01T07:42:57;5.20;99.90
64685;DHT22;51109;47.414;18.954;2023-03-01T07:45:26;5.20;99.90
64685;DHT22;51109;47.414;18.954;2023-03-01T07:47:53;5.30;99.90
64685;DHT22;51109;47.414;18.954;2023-03-01T07:50:20;5.30;99.90
64685;DHT22;51109;47.414;18.954;2023-03-01T07:52:48;5.40;99.90
64685;DHT22;51109;47.414;18.954;2023-03-01T07:55:15;5.40;99.90
64685;DHT22;51109;47.414;18.954;2023-03-01T07:57:42;5.50;99.90
64685;DHT22;51109;47.414;18.954;2023-03-01T08:00:10;5.40;99.90
64685;DHT22;51109;47.414;18.954;2023-03-01T08:02:42;5.50;99.90
64685;DHT22;51109;47.414;18.954;2023-03-01T08:05:09;5.50;99.90
64685;DHT22;51109;47.414;18.954;2023-03-01T08:07:35;5.50;99.90
64685;DHT22;51109;47.414;18.954;2023-03-01T08:10:04;5.60;99.90
64685;DHT22;51109;47.414;18.954;2023-03-01T08:12:31;5.80;99.90
64685;DHT22;51109;47.414;18.954;2023-03-01T08:14:57;5.80;99.90
64685;DHT22;51109;47.414;18.954;2023-03-01T08:17:23;5.90;99.90
64685;DHT22;51109;47.414;18.954;2023-03-01T08:19:49;6.00;99.90
64685;DHT22;51109;47.414;18.954;2023-03-01T08:22:15;6.10;99.90
64685;DHT22;51109;47.414;18.954;2023-03-01T08:24:41;6.00;99.90
64685;DHT22;51109;47.414;18.954;2023-03-01T08:27:07;6.10;99.90
64685;DHT22;51109;47.414;18.954;2023-03-01T08:29:35;6.20;99.90
64685;DHT22;51109;47.414;18.954;2023-03-01T08:32:01;6.30;99.90
64685;DHT22;51109;47.414;18.954;2023-03-01T08:34:27;6.30;99.90
64685;DHT22;51109;47.414;18.954;2023-03-01T08:36:53;6.40;99.90
64685;DHT22;51109;47.414;18.954;2023-03-01T08:39:20;6.40;99.90
64685;DHT22;51109;47.414;18.954;2023-03-01T08:41:46;6.40;99.90
64685;DHT22;51109;47.414;18.954;2023-03-01T08:44:14;6.40;99.90
64685;DHT22;51109;47.414;18.954;2023-03-01T08:46:43;6.40;99.90
64685;DHT22;51109;47.414;18.954;2023-03-01T08:49:12;6.40;99.90
64685;DHT22;51109;47.414;18.954;2023-03-01T08:51:39;6.40;99.90
64685;DHT22;51109;47.414;18.954;2023-03-01T08:54:19;6.40;99.90
64685;DHT22;51109;47.414;18.954;2023-03-01T08:56:46;6.30;99.90
64685;DHT22;51109;47.414;18.954;2023-03-01T08:59:13;6.40;99.90
64685;DHT22;51109;47.414;18.954;2023-03-01T09:01:40;6.50;99.90
64685;DHT22;51109;47.414;18.954;2023-03-01T09:04:09;6.50;99.90
64685;DHT22;51109;47.414;18.954;2023-03-01T09:06:36;6.50;99.90
64685;DHT22;51109;47.414;18.954;2023-03-01T09:09:04;6.60;99.90
64685;DHT22;51109;47.414;18.954;2023-03-01T09:11:31;6.60;99.90
64685;DHT22;51109;47.414;18.954;2023-03-01T09:13:57;6.70;99.90
64685;DHT22;51109;47.414;18.954;2023-03-01T09:16:23;6.80;99.90
64685;DHT22;51109;47.414;18.954;2023-03-01T09:18:50;6.80;99.90
64685;DHT22;51109;47.414;18.954;2023-03-01T09:21:18;7.00;99.90
64685;DHT22;51109;47.414;18.954;2023-03-01T09:23:46;7.00;99.90
64685;DHT22;51109;47.414;18.954;2023-03-01T09:26:18;6.90;99.90
64685;DHT22;51109;47.414;18.954;2023-03-01T09:28:46;7.10;99.90
64685;DHT22;51109;47.414;18.954;2023-03-01T09:31:13;7.20;99.90
64685;DHT22;51109;47.414;18.954;2023-03-01T09:33:40;7.20;99.90
64685;DHT22;51109;47.414;18.954;2023-03-01T09:36:11;7.30;99.90
64685;DHT22;51109;47.414;18.954;2023-03-01T09:38:38;7.30;99.90
64685;DHT22;51109;47.414;18.954;2023-03-01T09:43:51;7.60;99.90
64685;DHT22;51109;47.414;18.954;2023-03-01T09:46:21;7.80;99.90
64685;DHT22;51109;47.414;18.954;2023-03-01T09:49:27;7.90;99.90
64685;DHT22;51109;47.414;18.954;2023-03-01T09:52:19;7.80;99.90
64685;DHT22;51109;47.414;18.954;2023-03-01T09:54:54;7.70;99.90
64685;DHT22;51109;47.414;18.954;2023-03-01T10:03:21;8.00;99.90
64685;DHT22;51109;47.414;18.954;2023-03-01T10:06:14;8.10;99.90
64685;DHT22;51109;47.414;18.954;2023-03-01T10:11:31;8.50;99.90
64685;DHT22;51109;47.414;18.954;2023-03-01T10:14:27;8.60;99.90
64685;DHT22;51109;47.414;18.954;2023-03-01T10:20:25;8.60;99.90
64685;DHT22;51109;47.414;18.954;2023-03-01T10:22:51;8.90;99.90
64685;DHT22;51109;47.414;18.954;2023-03-01T10:27:54;9.20;99.90
64685;DHT22;51109;47.414;18.954;2023-03-01T10:30:35;9.30;99.90
64685;DHT22;51109;47.414;18.954;2023-03-01T10:33:22;9.30;99.90
64685;DHT22;51109;47.414;18.954;2023-03-01T10:35:48;9.30;99.90
64685;DHT22;51109;47.414;18.954;2023-03-01T10:38:15;9.20;99.90
64685;DHT22;51109;47.414;18.954;2023-03-01T10:40:56;9.40;99.90
64685;DHT22;51109;47.414;18.954;2023-03-01T10:43:29;9.40;99.90
64685;DHT22;51109;47.414;18.954;2023-03-01T10:45:57;9.50;99.90
64685;DHT22;51109;47.414;18.954;2023-03-01T10:48:25;9.40;99.90
64685;DHT22;51109;47.414;18.954;2023-03-01T10:53:41;9.20;99.90
64685;DHT22;51109;47.414;18.954;2023-03-01T10:56:12;9.10;99.90
64685;DHT22;51109;47.414;18.954;2023-03-01T10:59:03;9.00;99.90
64685;DHT22;51109;47.414;18.954;2023-03-01T11:01:34;9.20;99.90
64685;DHT22;51109;47.414;18.954;2023-03-01T11:06:34;9.70;99.90
64685;DHT22;51109;47.414;18.954;2023-03-01T11:11:44;10.00;99.90
64685;DHT22;51109;47.414;18.954;2023-03-01T11:14:21;10.30;99.90
64685;DHT22;51109;47.414;18.954;2023-03-01T11:16:59;10.60;99.90
64685;DHT22;51109;47.414;18.954;2023-03-01T11:19:26;10.90;99.90
64685;DHT22;51109;47.414;18.954;2023-03-01T11:24:27;10.90;99.90
64685;DHT22;51109;47.414;18.954;2023-03-01T11:26:55;10.80;99.90
64685;DHT22;51109;47.414;18.954;2023-03-01T11:29:29;10.70;99.90
64685;DHT22;51109;47.414;18.954;2023-03-01T11:32:00;10.10;99.90
64685;DHT22;51109;47.414;18.954;2023-03-01T11:34:56;10.00;99.90
64685;DHT22;51109;47.414;18.954;2023-03-01T11:37:44;10.10;99.90
64685;DHT22;51109;47.414;18.954;2023-03-01T11:40:26;10.40;99.90
64685;DHT22;51109;47.414;18.954;2023-03-01T11:45:55;10.50;99.90
64685;DHT22;51109;47.414;18.954;2023-03-01T11:51:02;10.30;99.90
64685;DHT22;51109;47.414;18.954;2023-03-01T12:05:08;10.30;99.90
64685;DHT22;51109;47.414;18.954;2023-03-01T12:19:05;10.60;99.90
64685;DHT22;51109;47.414;18.954;2023-03-01T12:49:17;10.70;99.90
64685;DHT22;51109;47.414;18.954;2023-03-01T12:52:14;10.80;99.90
64685;DHT22;51109;47.414;18.954;2023-03-01T12:54:37;10.80;99.90
64685;DHT22;51109;47.414;18.954;2023-03-01T12:57:58;10.80;99.90
64685;DHT22;51109;47.414;18.954;2023-03-01T13:03:29;10.60;99.90
64685;DHT22;51109;47.414;18.954;2023-03-01T13:06:43;10.60;99.90
64685;DHT22;51109;47.414;18.954;2023-03-01T13:08:50;10.70;99.90
64685;DHT22;51109;47.414;18.954;2023-03-01T13:11:23;10.60;99.90
64685;DHT22;51109;47.414;18.954;2023-03-01T13:13:49;10.70;99.90
64685;DHT22;51109;47.414;18.954;2023-03-01T13:18:47;10.90;99.90
64685;DHT22;51109;47.414;18.954;2023-03-01T13:21:29;11.00;99.90
64685;DHT22;51109;47.414;18.954;2023-03-01T13:23:55;10.90;99.90
64685;DHT22;51109;47.414;18.954;2023-03-01T13:26:21;10.90;99.90
64685;DHT22;51109;47.414;18.954;2023-03-01T13:28:55;10.70;99.90
64685;DHT22;51109;47.414;18.954;2023-03-01T13:33:52;10.90;99.90
64685;DHT22;51109;47.414;18.954;2023-03-01T13:39:05;10.80;99.90
64685;DHT22;51109;47.414;18.954;2023-03-01T13:41:55;11.00;99.90
64685;DHT22;51109;47.414;18.954;2023-03-01T13:46:54;11.10;99.90
64685;DHT22;51109;47.414;18.954;2023-03-01T13:49:23;11.20;99.90
64685;DHT22;51109;47.414;18.954;2023-03-01T13:51:51;11.10;99.90
64685;DHT22;51109;47.414;18.954;2023-03-01T13:54:26;11.00;99.90
64685;DHT22;51109;47.414;18.954;2023-03-01T13:56:54;11.20;99.90
64685;DHT22;51109;47.414;18.954;2023-03-01T13:59:22;11.20;99.90
64685;DHT22;51109;47.414;18.954;2023-03-01T14:02:00;11.20;99.90
64685;DHT22;51109;47.414;18.954;2023-03-01T14:04:31;11.20;99.90
64685;DHT22;51109;47.414;18.954;2023-03-01T14:09:43;11.10;99.90
64685;DHT22;51109;47.414;18.954;2023-03-01T14:12:44;11.10;99.90
64685;DHT22;51109;47.414;18.954;2023-03-01T14:15:19;11.10;99.90
64685;DHT22;51109;47.414;18.954;2023-03-01T14:18:18;11.00;99.90
64685;DHT22;51109;47.414;18.954;2023-03-01T14:20:46;11.00;99.90
64685;DHT22;51109;47.414;18.954;2023-03-01T14:23:23;10.90;99.90
64685;DHT22;51109;47.414;18.954;2023-03-01T14:25:52;10.90;99.90
64685;DHT22;51109;47.414;18.954;2023-03-01T14:28:32;11.00;99.90
64685;DHT22;51109;47.414;18.954;2023-03-01T14:31:03;11.10;99.90
64685;DHT22;51109;47.414;18.954;2023-03-01T14:33:56;11.10;99.90
64685;DHT22;51109;47.414;18.954;2023-03-01T14:36:31;11.10;99.90
64685;DHT22;51109;47.414;18.954;2023-03-01T14:38:57;11.00;99.90
64685;DHT22;51109;47.414;18.954;2023-03-01T14:41:34;11.00;99.90
64685;DHT22;51109;47.414;18.954;2023-03-01T14:44:05;11.10;99.90
64685;DHT22;51109;47.414;18.954;2023-03-01T14:49:17;11.10;99.90
64685;DHT22;51109;47.414;18.954;2023-03-01T14:52:20;11.20;99.90
64685;DHT22;51109;47.414;18.954;2023-03-01T14:54:49;11.20;99.90
64685;DHT22;51109;47.414;18.954;2023-03-01T14:57:21;11.10;99.90
64685;DHT22;51109;47.414;18.954;2023-03-01T14:59:49;11.10;99.90
64685;DHT22;51109;47.414;18.954;2023-03-01T15:02:19;11.00;99.90
64685;DHT22;51109;47.414;18.954;2023-03-01T15:04:48;11.10;99.90
64685;DHT22;51109;47.414;18.954;2023-03-01T15:07:15;11.10;99.90
64685;DHT22;51109;47.414;18.954;2023-03-01T15:09:43;11.10;99.90
64685;DHT22;51109;47.414;18.954;2023-03-01T15:14:54;11.10;99.90
64685;DHT22;51109;47.414;18.954;2023-03-01T15:17:34;11.10;99.90
64685;DHT22;51109;47.414;18.954;2023-03-01T15:20:22;11.00;99.90
64685;DHT22;51109;47.414;18.954;2023-03-01T15:22:53;11.00;99.90
64685;DHT22;51109;47.414;18.954;2023-03-01T15:25:26;11.00;99.90
64685;DHT22;51109;47.414;18.954;2023-03-01T15:27:53;10.90;99.90
64685;DHT22;51109;47.414;18.954;2023-03-01T15:30:27;10.90;99.90
64685;DHT22;51109;47.414;18.954;2023-03-01T15:35:51;10.90;99.90
64685;DHT22;51109;47.414;18.954;2023-03-01T15:40:51;10.80;99.90
64685;DHT22;51109;47.414;18.954;2023-03-01T15:43:46;10.70;99.90
64685;DHT22;51109;47.414;18.954;2023-03-01T15:46:33;10.70;99.90
64685;DHT22;51109;47.414;18.954;2023-03-01T15:49:03;10.60;99.90
64685;DHT22;51109;47.414;18.954;2023-03-01T15:51:35;10.60;99.90
64685;DHT22;51109;47.414;18.954;2023-03-01T15:54:08;10.60;99.90
64685;DHT22;51109;47.414;18.954;2023-03-01T15:56:38;10.50;99.90
64685;DHT22;51109;47.414;18.954;2023-03-01T15:59:04;10.40;99.90
64685;DHT22;51109;47.414;18.954;2023-03-01T16:01:30;10.40;99.90
64685;DHT22;51109;47.414;18.954;2023-03-01T16:03:56;10.40;99.90
64685;DHT22;51109;47.414;18.954;2023-03-01T16:06:23;10.30;99.90
64685;DHT22;51109;47.414;18.954;2023-03-01T16:08:49;10.20;99.90
64685;DHT22;51109;47.414;18.954;2023-03-01T16:11:17;10.10;99.90
64685;DHT22;51109;47.414;18.954;2023-03-01T16:13:44;10.00;99.90
64685;DHT22;51109;47.414;18.954;2023-03-01T16:16:11;10.00;99.90
64685;DHT22;51109;47.414;18.954;2023-03-01T16:18:43;9.90;99.90
64685;DHT22;51109;47.414;18.954;2023-03-01T16:21:23;9.80;99.90
64685;DHT22;51109;47.414;18.954;2023-03-01T16:23:50;9.70;99.90
64685;DHT22;51109;47.414;18.954;2023-03-01T16:26:17;9.60;99.90
64685;DHT22;51109;47.414;18.954;2023-03-01T16:28:44;9.50;99.90
64685;DHT22;51109;47.414;18.954;2023-03-01T16:31:12;9.40;99.90
64685;DHT22;51109;47.414;18.954;2023-03-01T16:33:41;9.30;99.90
64685;DHT22;51109;47.414;18.954;2023-03-01T16:36:09;9.30;99.90
64685;DHT22;51109;47.414;18.954;2023-03-01T16:38:36;9.30;99.90
64685;DHT22;51109;47.414;18.954;2023-03-01T16:41:02;9.30;99.90
64685;DHT22;51109;47.414;18.954;2023-03-01T16:43:29;9.20;99.90
64685;DHT22;51109;47.414;18.954;2023-03-01T16:45:55;9.00;99.90
64685;DHT22;51109;47.414;18.954;2023-03-01T16:48:21;8.80;99.90
64685;DHT22;51109;47.414;18.954;2023-03-01T16:51:00;8.60;99.90
64685;DHT22;51109;47.414;18.954;2023-03-01T16:53:28;8.50;99.90
64685;DHT22;51109;47.414;18.954;2023-03-01T16:55:55;8.50;99.90
64685;DHT22;51109;47.414;18.954;2023-03-01T16:58:22;8.50;99.90
64685;DHT22;51109;47.414;18.954;2023-03-01T17:00:53;8.40;99.90
64685;DHT22;51109;47.414;18.954;2023-03-01T17:03:20;8.40;99.90
64685;DHT22;51109;47.414;18.954;2023-03-01T17:05:47;8.30;99.90
64685;DHT22;51109;47.414;18.954;2023-03-01T17:08:13;8.40;99.90
64685;DHT22;51109;47.414;18.954;2023-03-01T17:10:39;8.40;99.90
64685;DHT22;51109;47.414;18.954;2023-03-01T17:13:08;8.30;99.90
64685;DHT22;51109;47.414;18.954;2023-03-01T17:15:37;8.30;99.90
64685;DHT22;51109;47.414;18.954;2023-03-01T17:18:03;8.30;99.90
64685;DHT22;51109;47.414;18.954;2023-03-01T17:20:29;8.30;99.90
64685;DHT22;51109;47.414;18.954;2023-03-01T17:22:55;8.30;99.90
64685;DHT22;51109;47.414;18.954;2023-03-01T17:25:21;8.30;99.90
64685;DHT22;51109;47.414;18.954;2023-03-01T17:27:47;8.20;99.90
64685;DHT22;51109;47.414;18.954;2023-03-01T17:30:14;8.10;99.90
64685;DHT22;51109;47.414;18.954;2023-03-01T17:32:41;8.10;99.90
64685;DHT22;51109;47.414;18.954;2023-03-01T17:35:08;8.10;99.90
64685;DHT22;51109;47.414;18.954;2023-03-01T17:37:37;8.00;99.90
64685;DHT22;51109;47.414;18.954;2023-03-01T17:40:05;7.90;99.90
64685;DHT22;51109;47.414;18.954;2023-03-01T17:42:32;8.00;99.90
64685;DHT22;51109;47.414;18.954;2023-03-01T17:44:58;7.90;99.90
64685;DHT22;51109;47.414;18.954;2023-03-01T17:47:25;7.90;99.90
64685;DHT22;51109;47.414;18.954;2023-03-01T17:49:51;7.90;99.90
64685;DHT22;51109;47.414;18.954;2023-03-01T17:52:17;7.80;99.90
64685;DHT22;51109;47.414;18.954;2023-03-01T17:54:48;7.80;99.90
64685;DHT22;51109;47.414;18.954;2023-03-01T17:57:15;7.80;99.90